sensor_id;sensor_type;location;lat;lon;timestamp;noise_LAeq;noise_LA_min;noise_LA_max;noise_LA01;noise_LA95
58251;Laerm;51449;51.676;5.812;2023-02-21T00:00:06;53.18;35.55;68.99;;
58251;Laerm;51449;51.676;5.812;2023-02-21T00:02:46;51.20;32.91;67.28;;
58251;Laerm;51449;51.676;5.812;2023-02-21T00:05:26;52.74;31.99;68.58;;
58251;Laerm;51449;51.676;5.812;2023-02-21T00:08:06;57.95;33.13;72.41;;
58251;Laerm;51449;51.676;5.812;2023-02-21T00:10:46;44.16;31.01;65.57;;
58251;Laerm;51449;51.676;5.812;2023-02-21T00:13:27;46.36;32.60;64.00;;
58251;Laerm;51449;51.676;5.812;2023-02-21T00:16:07;50.94;36.50;66.08;;
58251;Laerm;51449;51.676;5.812;2023-02-21T00:18:47;56.76;35.85;70.90;;
58251;Laerm;51449;51.676;5.812;2023-02-21T00:21:28;47.61;30.86;65.91;;
58251;Laerm;51449;51.676;5.812;2023-02-21T00:24:13;55.68;36.35;73.09;;
58251;Laerm;51449;51.676;5.812;2023-02-21T00:26:54;52.39;35.44;67.00;;
58251;Laerm;51449;51.676;5.812;2023-02-21T00:29:34;49.68;37.73;70.61;;
58251;Laerm;51449;51.676;5.812;2023-02-21T00:32:14;54.83;36.82;68.46;;
58251;Laerm;51449;51.676;5.812;2023-02-21T00:34:55;54.90;35.75;71.25;;
58251;Laerm;51449;51.676;5.812;2023-02-21T00:37:35;50.02;35.87;66.37;;
58251;Laerm;51449;51.676;5.812;2023-02-21T00:40:16;40.65;35.50;60.01;;
58251;Laerm;51449;51.676;5.812;2023-02-21T00:42:56;50.96;35.32;67.55;;
58251;Laerm;51449;51.676;5.812;2023-02-21T00:45:36;39.20;35.16;50.53;;
58251;Laerm;51449;51.676;5.812;2023-02-21T00:48:22;55.46;35.99;70.98;;
58251;Laerm;51449;51.676;5.812;2023-02-21T00:51:02;49.59;35.60;63.62;;
58251;Laerm;51449;51.676;5.812;2023-02-21T00:53:42;43.07;35.60;61.38;;
58251;Laerm;51449;51.676;5.812;2023-02-21T00:56:23;41.14;34.81;55.87;;
58251;Laerm;51449;51.676;5.812;2023-02-21T00:59:03;40.20;35.59;56.35;;
58251;Laerm;51449;51.676;5.812;2023-02-21T01:01:43;55.89;35.28;71.59;;
58251;Laerm;51449;51.676;5.812;2023-02-21T01:04:23;57.93;35.53;75.64;;
58251;Laerm;51449;51.676;5.812;2023-02-21T01:07:04;52.85;35.35;68.59;;
58251;Laerm;51449;51.676;5.812;2023-02-21T01:09:44;49.97;35.63;67.60;;
58251;Laerm;51449;51.676;5.812;2023-02-21T01:12:25;54.01;35.10;70.08;;
58251;Laerm;51449;51.676;5.812;2023-02-21T01:15:05;55.31;36.32;70.71;;
58251;Laerm;51449;51.676;5.812;2023-02-21T01:17:46;43.84;35.84;51.45;;
58251;Laerm;51449;51.676;5.812;2023-02-21T01:20:28;51.80;36.57;68.33;;
58251;Laerm;51449;51.676;5.812;2023-02-21T01:23:08;43.11;36.31;64.42;;
58251;Laerm;51449;51.676;5.812;2023-02-21T01:25:48;48.84;35.99;72.05;;
58251;Laerm;51449;51.676;5.812;2023-02-21T01:28:28;47.79;32.91;61.64;;
58251;Laerm;51449;51.676;5.812;2023-02-21T01:31:09;57.61;36.87;77.77;;
58251;Laerm;51449;51.676;5.812;2023-02-21T01:33:49;45.27;36.61;52.90;;
58251;Laerm;51449;51.676;5.812;2023-02-21T01:36:31;47.36;36.63;54.67;;
58251;Laerm;51449;51.676;5.812;2023-02-21T01:39:12;51.60;37.54;67.16;;
58251;Laerm;51449;51.676;5.812;2023-02-21T01:41:53;53.38;36.40;68.39;;
58251;Laerm;51449;51.676;5.812;2023-02-21T01:44:40;48.45;36.38;57.94;;
58251;Laerm;51449;51.676;5.812;2023-02-21T01:47:22;51.51;37.56;68.07;;
58251;Laerm;51449;51.676;5.812;2023-02-21T01:50:20;49.67;37.09;65.05;;
58251;Laerm;51449;51.676;5.812;2023-02-21T01:53:10;49.02;36.11;65.12;;
58251;Laerm;51449;51.676;5.812;2023-02-21T01:55:55;50.22;35.66;64.34;;
58251;Laerm;51449;51.676;5.812;2023-02-21T01:58:36;50.90;35.74;68.55;;
58251;Laerm;51449;51.676;5.812;2023-02-21T02:01:34;51.57;37.43;63.87;;
58251;Laerm;51449;51.676;5.812;2023-02-21T02:04:15;51.28;37.38;66.15;;
58251;Laerm;51449;51.676;5.812;2023-02-21T02:06:55;60.86;37.34;75.28;;
58251;Laerm;51449;51.676;5.812;2023-02-21T02:09:36;55.23;37.44;69.87;;
58251;Laerm;51449;51.676;5.812;2023-02-21T02:26:59;59.42;35.78;75.63;;
58251;Laerm;51449;51.676;5.812;2023-02-21T02:30:12;50.52;35.68;69.62;;
58251;Laerm;51449;51.676;5.812;2023-02-21T02:35:33;56.64;29.54;73.69;;
58251;Laerm;51449;51.676;5.812;2023-02-21T02:38:23;51.96;28.53;68.50;;
58251;Laerm;51449;51.676;5.812;2023-02-21T02:44:09;45.90;30.01;62.62;;
58251;Laerm;51449;51.676;5.812;2023-02-21T02:46:38;56.84;33.94;74.10;;
58251;Laerm;51449;51.676;5.812;2023-02-21T02:49:11;56.12;30.95;68.64;;
58251;Laerm;51449;51.676;5.812;2023-02-21T02:51:35;51.31;30.44;68.21;;
58251;Laerm;51449;51.676;5.812;2023-02-21T02:53:59;49.35;29.83;65.59;;
58251;Laerm;51449;51.676;5.812;2023-02-21T02:56:21;52.01;32.25;67.83;;
58251;Laerm;51449;51.676;5.812;2023-02-21T02:59:05;55.38;31.44;78.62;;
58251;Laerm;51449;51.676;5.812;2023-02-21T03:09:01;48.74;29.15;68.07;;
58251;Laerm;51449;51.676;5.812;2023-02-21T03:11:08;51.58;29.64;66.51;;
58251;Laerm;51449;51.676;5.812;2023-02-21T03:13:56;41.86;29.56;57.26;;
58251;Laerm;51449;51.676;5.812;2023-02-21T03:16:39;57.65;33.45;71.56;;
58251;Laerm;51449;51.676;5.812;2023-02-21T03:19:11;51.77;30.27;69.51;;
58251;Laerm;51449;51.676;5.812;2023-02-21T03:21:45;56.22;32.56;74.27;;
58251;Laerm;51449;51.676;5.812;2023-02-21T03:24:13;48.68;30.11;66.09;;
58251;Laerm;51449;51.676;5.812;2023-02-21T03:26:41;60.10;31.45;73.91;;
58251;Laerm;51449;51.676;5.812;2023-02-21T03:29:28;53.27;30.81;68.76;;
58251;Laerm;51449;51.676;5.812;2023-02-21T03:32:17;57.30;35.23;71.04;;
58251;Laerm;51449;51.676;5.812;2023-02-21T03:34:43;57.34;36.73;72.16;;
58251;Laerm;51449;51.676;5.812;2023-02-21T03:37:18;55.69;33.19;70.76;;
58251;Laerm;51449;51.676;5.812;2023-02-21T03:39:40;55.20;37.51;70.47;;
58251;Laerm;51449;51.676;5.812;2023-02-21T03:42:02;57.53;32.19;72.78;;
58251;Laerm;51449;51.676;5.812;2023-02-21T03:44:25;51.49;29.02;65.50;;
58251;Laerm;51449;51.676;5.812;2023-02-21T03:46:48;57.76;36.36;72.96;;
58251;Laerm;51449;51.676;5.812;2023-02-21T03:49:09;52.91;30.97;70.84;;
58251;Laerm;51449;51.676;5.812;2023-02-21T03:51:31;56.82;31.77;71.18;;
58251;Laerm;51449;51.676;5.812;2023-02-21T03:53:52;55.40;30.10;72.94;;
58251;Laerm;51449;51.676;5.812;2023-02-21T03:56:19;53.25;31.34;66.68;;
58251;Laerm;51449;51.676;5.812;2023-02-21T03:58:57;50.66;30.10;66.59;;
58251;Laerm;51449;51.676;5.812;2023-02-21T04:01:18;57.38;30.37;71.08;;
58251;Laerm;51449;51.676;5.812;2023-02-21T04:03:40;50.24;29.76;67.85;;
58251;Laerm;51449;51.676;5.812;2023-02-21T04:06:02;53.40;30.06;71.30;;
58251;Laerm;51449;51.676;5.812;2023-02-21T04:08:25;61.40;31.32;76.55;;
58251;Laerm;51449;51.676;5.812;2023-02-21T04:10:46;57.41;31.94;72.53;;
58251;Laerm;51449;51.676;5.812;2023-02-21T04:13:15;59.60;31.04;77.37;;
58251;Laerm;51449;51.676;5.812;2023-02-21T04:15:39;58.55;30.62;70.64;;
58251;Laerm;51449;51.676;5.812;2023-02-21T04:18:01;61.79;31.31;75.61;;
58251;Laerm;51449;51.676;5.812;2023-02-21T04:20:23;60.78;33.20;72.86;;
58251;Laerm;51449;51.676;5.812;2023-02-21T04:22:49;54.62;33.06;67.03;;
58251;Laerm;51449;51.676;5.812;2023-02-21T04:25:24;62.35;35.38;74.95;;
58251;Laerm;51449;51.676;5.812;2023-02-21T04:27:51;56.69;36.54;72.74;;
58251;Laerm;51449;51.676;5.812;2023-02-21T04:30:13;61.58;35.10;73.74;;
58251;Laerm;51449;51.676;5.812;2023-02-21T04:32:35;64.01;38.48;76.65;;
58251;Laerm;51449;51.676;5.812;2023-02-21T04:35:02;59.95;38.61;72.69;;
58251;Laerm;51449;51.676;5.812;2023-02-21T04:37:24;61.53;37.74;72.88;;
58251;Laerm;51449;51.676;5.812;2023-02-21T04:39:46;57.84;33.36;71.67;;
58251;Laerm;51449;51.676;5.812;2023-02-21T04:42:10;59.69;36.83;74.45;;
58251;Laerm;51449;51.676;5.812;2023-02-21T04:44:32;60.30;35.74;72.50;;
58251;Laerm;51449;51.676;5.812;2023-02-21T04:46:54;58.77;35.97;71.24;;
58251;Laerm;51449;51.676;5.812;2023-02-21T04:49:15;63.23;40.23;73.34;;
58251;Laerm;51449;51.676;5.812;2023-02-21T04:51:37;58.43;35.40;70.54;;
58251;Laerm;51449;51.676;5.812;2023-02-21T04:53:59;62.39;30.51;74.74;;
58251;Laerm;51449;51.676;5.812;2023-02-21T04:56:24;59.31;31.89;73.96;;
58251;Laerm;51449;51.676;5.812;2023-02-21T04:58:48;55.24;34.78;67.53;;
58251;Laerm;51449;51.676;5.812;2023-02-21T05:01:11;57.54;32.58;73.16;;
58251;Laerm;51449;51.676;5.812;2023-02-21T05:03:33;61.50;34.23;73.96;;
58251;Laerm;51449;51.676;5.812;2023-02-21T05:05:55;59.53;32.44;76.23;;
58251;Laerm;51449;51.676;5.812;2023-02-21T05:08:17;60.33;34.64;78.21;;
58251;Laerm;51449;51.676;5.812;2023-02-21T05:10:38;58.85;36.70;70.76;;
58251;Laerm;51449;51.676;5.812;2023-02-21T05:13:06;61.61;35.65;74.04;;
58251;Laerm;51449;51.676;5.812;2023-02-21T05:15:27;59.41;36.41;71.93;;
58251;Laerm;51449;51.676;5.812;2023-02-21T05:17:49;62.28;34.41;73.16;;
58251;Laerm;51449;51.676;5.812;2023-02-21T05:20:11;60.25;36.47;73.63;;
58251;Laerm;51449;51.676;5.812;2023-02-21T05:22:33;61.94;35.06;71.78;;
58251;Laerm;51449;51.676;5.812;2023-02-21T05:24:54;60.36;35.75;72.98;;
58251;Laerm;51449;51.676;5.812;2023-02-21T05:27:19;61.82;35.92;73.54;;
58251;Laerm;51449;51.676;5.812;2023-02-21T05:29:46;61.14;39.82;75.30;;
58251;Laerm;51449;51.676;5.812;2023-02-21T05:32:09;62.55;39.78;73.02;;
58251;Laerm;51449;51.676;5.812;2023-02-21T05:34:31;63.94;40.85;73.44;;
58251;Laerm;51449;51.676;5.812;2023-02-21T05:36:53;62.41;41.18;71.19;;
58251;Laerm;51449;51.676;5.812;2023-02-21T05:39:15;65.41;43.20;77.99;;
58251;Laerm;51449;51.676;5.812;2023-02-21T05:41:36;64.14;38.47;79.70;;
58251;Laerm;51449;51.676;5.812;2023-02-21T05:43:58;65.08;42.04;80.56;;
58251;Laerm;51449;51.676;5.812;2023-02-21T05:46:33;66.35;44.55;80.65;;
58251;Laerm;51449;51.676;5.812;2023-02-21T05:48:58;62.47;38.01;79.36;;
58251;Laerm;51449;51.676;5.812;2023-02-21T05:51:19;65.87;41.47;79.25;;
58251;Laerm;51449;51.676;5.812;2023-02-21T05:53:41;61.27;39.32;77.50;;
58251;Laerm;51449;51.676;5.812;2023-02-21T05:56:03;63.15;41.36;76.90;;
58251;Laerm;51449;51.676;5.812;2023-02-21T05:58:25;65.53;42.23;79.62;;
58251;Laerm;51449;51.676;5.812;2023-02-21T06:00:46;70.13;47.42;86.95;;
58251;Laerm;51449;51.676;5.812;2023-02-21T06:03:08;66.91;46.53;79.32;;
58251;Laerm;51449;51.676;5.812;2023-02-21T06:05:30;66.62;40.66;79.84;;
58251;Laerm;51449;51.676;5.812;2023-02-21T06:07:51;66.97;42.82;77.14;;
58251;Laerm;51449;51.676;5.812;2023-02-21T06:10:15;63.36;43.50;75.03;;
58251;Laerm;51449;51.676;5.812;2023-02-21T06:12:37;60.56;39.26;68.62;;
58251;Laerm;51449;51.676;5.812;2023-02-21T06:14:59;64.06;45.47;72.76;;
58251;Laerm;51449;51.676;5.812;2023-02-21T06:17:21;65.19;46.70;76.73;;
58251;Laerm;51449;51.676;5.812;2023-02-21T06:19:43;64.13;38.89;78.00;;
58251;Laerm;51449;51.676;5.812;2023-02-21T06:22:04;63.17;35.95;74.04;;
58251;Laerm;51449;51.676;5.812;2023-02-21T06:24:26;63.98;43.49;76.17;;
58251;Laerm;51449;51.676;5.812;2023-02-21T06:26:47;61.97;36.80;73.64;;
58251;Laerm;51449;51.676;5.812;2023-02-21T06:29:10;64.33;41.40;74.47;;
58251;Laerm;51449;51.676;5.812;2023-02-21T06:31:32;63.51;39.21;73.00;;
58251;Laerm;51449;51.676;5.812;2023-02-21T06:33:53;64.87;41.83;86.50;;
58251;Laerm;51449;51.676;5.812;2023-02-21T06:36:21;64.39;42.98;76.89;;
58251;Laerm;51449;51.676;5.812;2023-02-21T06:38:49;65.86;45.09;74.12;;
58251;Laerm;51449;51.676;5.812;2023-02-21T06:41:15;65.62;46.97;76.36;;
58251;Laerm;51449;51.676;5.812;2023-02-21T06:43:37;65.77;41.74;74.73;;
58251;Laerm;51449;51.676;5.812;2023-02-21T06:45:59;62.75;43.87;73.25;;
58251;Laerm;51449;51.676;5.812;2023-02-21T06:48:20;62.40;40.52;73.67;;
58251;Laerm;51449;51.676;5.812;2023-02-21T06:50:43;63.27;44.59;75.08;;
58251;Laerm;51449;51.676;5.812;2023-02-21T06:53:05;63.30;42.13;70.72;;
58251;Laerm;51449;51.676;5.812;2023-02-21T06:55:26;63.59;42.16;77.15;;
58251;Laerm;51449;51.676;5.812;2023-02-21T06:57:48;66.05;47.59;75.49;;
58251;Laerm;51449;51.676;5.812;2023-02-21T07:00:10;65.38;43.70;75.60;;
58251;Laerm;51449;51.676;5.812;2023-02-21T07:02:32;62.38;41.86;71.02;;
58251;Laerm;51449;51.676;5.812;2023-02-21T07:04:54;64.28;46.03;75.53;;
58251;Laerm;51449;51.676;5.812;2023-02-21T07:07:16;62.53;41.37;72.63;;
58251;Laerm;51449;51.676;5.812;2023-02-21T07:09:38;65.60;45.37;77.26;;
58251;Laerm;51449;51.676;5.812;2023-02-21T07:11:59;65.74;47.83;77.97;;
58251;Laerm;51449;51.676;5.812;2023-02-21T07:14:21;65.22;45.47;79.09;;
58251;Laerm;51449;51.676;5.812;2023-02-21T07:16:43;65.29;40.79;75.43;;
58251;Laerm;51449;51.676;5.812;2023-02-21T07:19:04;63.74;39.25;83.72;;
58251;Laerm;51449;51.676;5.812;2023-02-21T07:21:26;63.00;39.97;82.22;;
58251;Laerm;51449;51.676;5.812;2023-02-21T07:23:49;63.99;41.08;73.57;;
58251;Laerm;51449;51.676;5.812;2023-02-21T07:26:11;63.03;41.16;74.98;;
58251;Laerm;51449;51.676;5.812;2023-02-21T07:28:33;64.65;41.12;77.18;;
58251;Laerm;51449;51.676;5.812;2023-02-21T07:30:54;63.01;40.42;81.03;;
58251;Laerm;51449;51.676;5.812;2023-02-21T07:33:16;63.56;41.28;73.61;;
58251;Laerm;51449;51.676;5.812;2023-02-21T07:35:38;64.33;49.35;74.76;;
58251;Laerm;51449;51.676;5.812;2023-02-21T07:37:59;63.11;42.78;79.62;;
58251;Laerm;51449;51.676;5.812;2023-02-21T07:40:21;63.61;43.52;72.44;;
58251;Laerm;51449;51.676;5.812;2023-02-21T07:42:43;62.80;38.91;74.32;;
58251;Laerm;51449;51.676;5.812;2023-02-21T07:45:05;64.42;44.82;75.69;;
58251;Laerm;51449;51.676;5.812;2023-02-21T07:47:27;63.49;39.58;74.12;;
58251;Laerm;51449;51.676;5.812;2023-02-21T07:49:49;57.86;40.05;68.18;;
58251;Laerm;51449;51.676;5.812;2023-02-21T07:52:10;65.92;44.87;75.75;;
58251;Laerm;51449;51.676;5.812;2023-02-21T07:54:32;65.47;43.16;75.96;;
58251;Laerm;51449;51.676;5.812;2023-02-21T07:56:54;63.41;40.07;73.33;;
58251;Laerm;51449;51.676;5.812;2023-02-21T07:59:16;68.40;45.27;81.71;;
58251;Laerm;51449;51.676;5.812;2023-02-21T08:01:37;63.30;44.96;74.42;;
58251;Laerm;51449;51.676;5.812;2023-02-21T08:03:59;62.01;42.83;72.23;;
58251;Laerm;51449;51.676;5.812;2023-02-21T08:06:22;63.32;39.50;72.88;;
58251;Laerm;51449;51.676;5.812;2023-02-21T08:08:44;63.27;38.78;72.35;;
58251;Laerm;51449;51.676;5.812;2023-02-21T08:11:06;60.80;39.75;73.01;;
58251;Laerm;51449;51.676;5.812;2023-02-21T08:13:28;63.68;41.02;77.33;;
58251;Laerm;51449;51.676;5.812;2023-02-21T08:15:50;65.32;43.17;78.20;;
58251;Laerm;51449;51.676;5.812;2023-02-21T08:18:19;58.94;38.54;78.41;;
58251;Laerm;51449;51.676;5.812;2023-02-21T08:20:45;62.71;44.37;72.22;;
58251;Laerm;51449;51.676;5.812;2023-02-21T08:23:06;64.84;42.23;75.69;;
58251;Laerm;51449;51.676;5.812;2023-02-21T08:25:28;63.70;42.28;77.40;;
58251;Laerm;51449;51.676;5.812;2023-02-21T08:27:50;64.93;39.59;78.03;;
58251;Laerm;51449;51.676;5.812;2023-02-21T08:30:19;65.33;42.65;78.85;;
58251;Laerm;51449;51.676;5.812;2023-02-21T08:32:41;63.31;38.28;75.72;;
58251;Laerm;51449;51.676;5.812;2023-02-21T08:35:05;69.37;41.28;83.31;;
58251;Laerm;51449;51.676;5.812;2023-02-21T08:37:26;64.60;38.56;81.27;;
58251;Laerm;51449;51.676;5.812;2023-02-21T08:39:53;65.26;40.34;74.75;;
58251;Laerm;51449;51.676;5.812;2023-02-21T08:42:15;66.02;45.05;79.54;;
58251;Laerm;51449;51.676;5.812;2023-02-21T08:44:37;64.81;42.51;74.94;;
58251;Laerm;51449;51.676;5.812;2023-02-21T08:46:58;66.67;45.60;75.37;;
58251;Laerm;51449;51.676;5.812;2023-02-21T08:49:21;65.05;46.97;82.11;;
58251;Laerm;51449;51.676;5.812;2023-02-21T08:51:43;67.29;47.29;74.09;;
58251;Laerm;51449;51.676;5.812;2023-02-21T08:54:06;61.27;39.60;74.23;;
58251;Laerm;51449;51.676;5.812;2023-02-21T08:56:28;64.92;44.37;74.75;;
58251;Laerm;51449;51.676;5.812;2023-02-21T08:58:52;64.67;41.11;75.03;;
58251;Laerm;51449;51.676;5.812;2023-02-21T09:01:16;65.06;40.29;76.81;;
58251;Laerm;51449;51.676;5.812;2023-02-21T09:03:38;65.43;43.44;75.94;;
58251;Laerm;51449;51.676;5.812;2023-02-21T09:06:00;66.05;45.00;77.20;;
58251;Laerm;51449;51.676;5.812;2023-02-21T09:08:24;64.85;39.43;73.91;;
58251;Laerm;51449;51.676;5.812;2023-02-21T09:10:47;65.41;38.03;75.73;;
58251;Laerm;51449;51.676;5.812;2023-02-21T09:13:09;65.96;44.21;76.73;;
58251;Laerm;51449;51.676;5.812;2023-02-21T09:15:31;63.05;37.57;76.41;;
58251;Laerm;51449;51.676;5.812;2023-02-21T09:17:53;66.69;51.23;79.81;;
58251;Laerm;51449;51.676;5.812;2023-02-21T09:20:22;67.77;42.91;83.65;;
58251;Laerm;51449;51.676;5.812;2023-02-21T09:22:44;65.83;43.12;74.61;;
58251;Laerm;51449;51.676;5.812;2023-02-21T09:25:06;64.76;45.54;75.39;;
58251;Laerm;51449;51.676;5.812;2023-02-21T09:27:33;63.55;46.59;75.16;;
58251;Laerm;51449;51.676;5.812;2023-02-21T09:29:57;61.49;42.20;73.99;;
58251;Laerm;51449;51.676;5.812;2023-02-21T09:32:19;68.14;45.64;76.33;;
58251;Laerm;51449;51.676;5.812;2023-02-21T09:34:41;66.07;47.17;76.84;;
58251;Laerm;51449;51.676;5.812;2023-02-21T09:37:06;66.76;44.62;76.68;;
58251;Laerm;51449;51.676;5.812;2023-02-21T09:39:27;63.62;47.71;73.16;;
58251;Laerm;51449;51.676;5.812;2023-02-21T09:41:50;66.71;46.08;78.45;;
58251;Laerm;51449;51.676;5.812;2023-02-21T09:44:20;63.76;41.03;76.14;;
58251;Laerm;51449;51.676;5.812;2023-02-21T09:46:49;66.62;43.24;75.07;;
58251;Laerm;51449;51.676;5.812;2023-02-21T09:49:24;65.70;48.25;76.05;;
58251;Laerm;51449;51.676;5.812;2023-02-21T09:51:49;61.66;41.15;73.62;;
58251;Laerm;51449;51.676;5.812;2023-02-21T09:54:26;63.82;45.75;79.23;;
58251;Laerm;51449;51.676;5.812;2023-02-21T09:56:48;65.02;49.22;77.92;;
58251;Laerm;51449;51.676;5.812;2023-02-21T09:59:11;65.87;48.28;77.67;;
58251;Laerm;51449;51.676;5.812;2023-02-21T10:02:08;63.45;46.31;73.43;;
58251;Laerm;51449;51.676;5.812;2023-02-21T10:05:19;63.61;46.99;74.38;;
58251;Laerm;51449;51.676;5.812;2023-02-21T10:10:57;60.51;40.66;71.63;;
58251;Laerm;51449;51.676;5.812;2023-02-21T10:13:42;66.13;41.88;77.36;;
58251;Laerm;51449;51.676;5.812;2023-02-21T10:21:43;63.79;40.58;73.50;;
58251;Laerm;51449;51.676;5.812;2023-02-21T10:24:22;66.80;50.96;75.64;;
58251;Laerm;51449;51.676;5.812;2023-02-21T10:27:00;62.72;41.43;74.60;;
58251;Laerm;51449;51.676;5.812;2023-02-21T10:29:31;65.69;43.98;78.26;;
58251;Laerm;51449;51.676;5.812;2023-02-21T10:32:00;65.43;45.29;72.95;;
58251;Laerm;51449;51.676;5.812;2023-02-21T10:34:27;65.46;44.25;75.25;;
58251;Laerm;51449;51.676;5.812;2023-02-21T10:36:51;66.43;48.99;75.88;;
58251;Laerm;51449;51.676;5.812;2023-02-21T10:39:21;65.44;41.76;76.88;;
58251;Laerm;51449;51.676;5.812;2023-02-21T10:41:45;65.03;45.20;75.12;;
58251;Laerm;51449;51.676;5.812;2023-02-21T10:44:20;66.10;45.60;81.78;;
58251;Laerm;51449;51.676;5.812;2023-02-21T10:47:01;65.53;44.34;76.54;;
58251;Laerm;51449;51.676;5.812;2023-02-21T10:49:33;65.11;45.02;74.71;;
58251;Laerm;51449;51.676;5.812;2023-02-21T10:52:14;75.32;44.64;94.06;;
58251;Laerm;51449;51.676;5.812;2023-02-21T10:54:38;63.71;42.85;74.39;;
58251;Laerm;51449;51.676;5.812;2023-02-21T10:57:03;63.85;44.83;74.02;;
58251;Laerm;51449;51.676;5.812;2023-02-21T10:59:31;62.93;42.44;72.15;;
58251;Laerm;51449;51.676;5.812;2023-02-21T11:01:54;65.53;44.26;75.44;;
58251;Laerm;51449;51.676;5.812;2023-02-21T11:06:48;63.91;42.99;74.58;;
58251;Laerm;51449;51.676;5.812;2023-02-21T11:12:24;70.01;44.04;83.58;;
58251;Laerm;51449;51.676;5.812;2023-02-21T11:17:22;65.94;48.09;77.85;;
58251;Laerm;51449;51.676;5.812;2023-02-21T11:25:04;64.43;44.39;74.40;;
58251;Laerm;51449;51.676;5.812;2023-02-21T11:27:30;65.05;47.96;74.34;;
58251;Laerm;51449;51.676;5.812;2023-02-21T11:29:54;65.89;42.33;74.87;;
58251;Laerm;51449;51.676;5.812;2023-02-21T11:32:48;65.69;45.66;82.41;;
58251;Laerm;51449;51.676;5.812;2023-02-21T11:35:26;65.60;50.40;74.83;;
58251;Laerm;51449;51.676;5.812;2023-02-21T11:37:55;68.35;51.64;78.07;;
58251;Laerm;51449;51.676;5.812;2023-02-21T11:40:27;66.38;50.66;76.32;;
58251;Laerm;51449;51.676;5.812;2023-02-21T11:42:49;68.22;51.58;81.44;;
58251;Laerm;51449;51.676;5.812;2023-02-21T11:45:28;67.21;51.70;77.39;;
58251;Laerm;51449;51.676;5.812;2023-02-21T11:48:11;66.49;51.13;74.30;;
58251;Laerm;51449;51.676;5.812;2023-02-21T11:50:41;64.51;44.00;75.62;;
58251;Laerm;51449;51.676;5.812;2023-02-21T11:53:26;65.09;44.14;76.00;;
58251;Laerm;51449;51.676;5.812;2023-02-21T11:59:48;65.81;54.11;75.81;;
58251;Laerm;51449;51.676;5.812;2023-02-21T12:02:47;66.84;55.69;75.37;;
58251;Laerm;51449;51.676;5.812;2023-02-21T12:05:32;65.91;53.66;75.39;;
58251;Laerm;51449;51.676;5.812;2023-02-21T12:11:19;65.53;52.92;74.09;;
58251;Laerm;51449;51.676;5.812;2023-02-21T12:14:11;65.46;53.02;73.26;;
58251;Laerm;51449;51.676;5.812;2023-02-21T12:17:04;67.41;55.13;74.43;;
58251;Laerm;51449;51.676;5.812;2023-02-21T12:20:00;66.54;56.98;78.27;;
58251;Laerm;51449;51.676;5.812;2023-02-21T12:22:57;65.89;47.74;74.63;;
58251;Laerm;51449;51.676;5.812;2023-02-21T12:37:49;65.49;46.77;83.03;;
58251;Laerm;51449;51.676;5.812;2023-02-21T12:40:35;65.61;45.50;76.43;;
58251;Laerm;51449;51.676;5.812;2023-02-21T12:43:46;60.60;41.73;71.64;;
58251;Laerm;51449;51.676;5.812;2023-02-21T12:49:15;69.06;46.54;84.67;;
58251;Laerm;51449;51.676;5.812;2023-02-21T12:51:46;65.97;43.90;77.17;;
58251;Laerm;51449;51.676;5.812;2023-02-21T12:54:19;59.79;38.90;71.13;;
58251;Laerm;51449;51.676;5.812;2023-02-21T12:56:59;63.42;43.86;71.77;;
58251;Laerm;51449;51.676;5.812;2023-02-21T12:59:32;65.99;47.50;76.97;;
58251;Laerm;51449;51.676;5.812;2023-02-21T13:02:08;64.05;43.87;75.17;;
58251;Laerm;51449;51.676;5.812;2023-02-21T13:04:49;65.75;44.73;75.34;;
58251;Laerm;51449;51.676;5.812;2023-02-21T13:07:26;65.06;42.92;76.55;;
58251;Laerm;51449;51.676;5.812;2023-02-21T13:10:33;64.40;41.99;83.35;;
58251;Laerm;51449;51.676;5.812;2023-02-21T13:13:11;66.82;44.86;84.20;;
58251;Laerm;51449;51.676;5.812;2023-02-21T13:15:36;66.10;47.54;76.30;;
58251;Laerm;51449;51.676;5.812;2023-02-21T13:18:10;64.77;53.16;74.09;;
58251;Laerm;51449;51.676;5.812;2023-02-21T13:20:50;66.45;54.71;80.73;;
58251;Laerm;51449;51.676;5.812;2023-02-21T13:26:32;63.38;49.85;78.07;;
58251;Laerm;51449;51.676;5.812;2023-02-21T13:28:58;63.16;51.79;77.33;;
58251;Laerm;51449;51.676;5.812;2023-02-21T13:31:25;75.17;50.10;89.61;;
58251;Laerm;51449;51.676;5.812;2023-02-21T13:33:55;62.79;42.90;74.44;;
58251;Laerm;51449;51.676;5.812;2023-02-21T13:39:29;63.57;40.09;73.88;;
58251;Laerm;51449;51.676;5.812;2023-02-21T13:42:08;65.20;40.61;82.81;;
58251;Laerm;51449;51.676;5.812;2023-02-21T13:44:35;63.69;41.97;83.41;;
58251;Laerm;51449;51.676;5.812;2023-02-21T13:47:21;66.79;46.27;83.34;;
58251;Laerm;51449;51.676;5.812;2023-02-21T13:49:57;65.65;42.37;77.15;;
58251;Laerm;51449;51.676;5.812;2023-02-21T14:08:12;62.84;40.97;73.54;;
58251;Laerm;51449;51.676;5.812;2023-02-21T14:10:52;62.65;43.49;74.57;;
58251;Laerm;51449;51.676;5.812;2023-02-21T14:21:00;69.17;52.75;86.89;;
58251;Laerm;51449;51.676;5.812;2023-02-21T14:23:37;65.20;44.71;77.38;;
58251;Laerm;51449;51.676;5.812;2023-02-21T14:26:03;62.77;38.73;76.26;;
58251;Laerm;51449;51.676;5.812;2023-02-21T14:34:37;65.01;42.28;78.92;;
58251;Laerm;51449;51.676;5.812;2023-02-21T14:37:10;63.01;40.43;72.74;;
58251;Laerm;51449;51.676;5.812;2023-02-21T14:39:44;62.51;42.75;70.96;;
58251;Laerm;51449;51.676;5.812;2023-02-21T14:52:50;65.47;42.64;76.77;;
58251;Laerm;51449;51.676;5.812;2023-02-21T14:58:05;64.42;52.60;73.11;;
58251;Laerm;51449;51.676;5.812;2023-02-21T15:01:28;64.41;40.64;76.55;;
58251;Laerm;51449;51.676;5.812;2023-02-21T15:04:11;62.58;38.53;76.40;;
58251;Laerm;51449;51.676;5.812;2023-02-21T15:06:39;65.56;49.09;76.08;;
58251;Laerm;51449;51.676;5.812;2023-02-21T15:09:17;64.91;43.40;75.32;;
58251;Laerm;51449;51.676;5.812;2023-02-21T15:11:40;63.21;46.41;77.19;;
58251;Laerm;51449;51.676;5.812;2023-02-21T15:14:17;69.29;45.13;85.25;;
58251;Laerm;51449;51.676;5.812;2023-02-21T15:16:46;66.13;50.20;84.36;;
58251;Laerm;51449;51.676;5.812;2023-02-21T15:19:30;63.31;42.50;70.63;;
58251;Laerm;51449;51.676;5.812;2023-02-21T15:22:21;65.30;42.54;81.10;;
58251;Laerm;51449;51.676;5.812;2023-02-21T15:27:29;63.56;43.08;76.02;;
58251;Laerm;51449;51.676;5.812;2023-02-21T15:30:22;63.05;42.15;79.21;;
58251;Laerm;51449;51.676;5.812;2023-02-21T15:32:56;64.89;45.12;86.24;;
58251;Laerm;51449;51.676;5.812;2023-02-21T15:35:25;64.96;43.30;81.75;;
58251;Laerm;51449;51.676;5.812;2023-02-21T15:37:47;63.77;43.26;79.27;;
58251;Laerm;51449;51.676;5.812;2023-02-21T15:40:18;68.41;42.46;81.05;;
58251;Laerm;51449;51.676;5.812;2023-02-21T15:42:43;63.76;48.04;74.41;;
58251;Laerm;51449;51.676;5.812;2023-02-21T15:45:19;65.58;49.96;78.92;;
58251;Laerm;51449;51.676;5.812;2023-02-21T15:47:43;65.21;46.80;75.66;;
58251;Laerm;51449;51.676;5.812;2023-02-21T15:50:22;62.58;46.80;69.41;;
58251;Laerm;51449;51.676;5.812;2023-02-21T15:52:49;64.59;51.15;72.54;;
58251;Laerm;51449;51.676;5.812;2023-02-21T15:55:28;66.08;42.70;79.09;;
58251;Laerm;51449;51.676;5.812;2023-02-21T16:00:29;64.78;49.54;72.42;;
58251;Laerm;51449;51.676;5.812;2023-02-21T16:02:51;64.13;43.23;83.19;;
58251;Laerm;51449;51.676;5.812;2023-02-21T16:05:42;65.71;40.91;81.76;;
58251;Laerm;51449;51.676;5.812;2023-02-21T16:08:04;63.50;45.08;76.18;;